createdAt,value
2023-04-07T00:02:44.519Z,7.58
2023-04-07T00:07:55.884Z,7.48
2023-04-07T00:12:59.431Z,7.40
2023-04-07T00:18:03.674Z,7.52
2023-04-07T00:23:06.414Z,7.50
2023-04-07T00:28:09.169Z,7.39
2023-04-07T00:33:13.362Z,7.47
2023-04-07T00:38:16.206Z,7.44
2023-04-07T00:43:19.747Z,7.45
2023-04-07T00:48:23.998Z,7.48
2023-04-07T00:53:26.711Z,7.34
2023-04-07T00:58:29.538Z,7.24
2023-04-07T01:03:38.139Z,7.31
2023-04-07T01:08:48.208Z,7.36
2023-04-07T01:13:52.987Z,7.32
2023-04-07T01:19:15.401Z,7.28
2023-04-07T01:24:43.694Z,7.32
2023-04-07T01:29:50.484Z,7.29
2023-04-07T01:34:53.969Z,7.26
2023-04-07T01:39:56.984Z,7.23
2023-04-07T01:45:02.107Z,7.24
2023-04-07T01:50:05.553Z,7.23
2023-04-07T01:55:09.782Z,7.14
2023-04-07T02:00:19.551Z,7.09
2023-04-07T02:05:27.340Z,7.09
2023-04-07T02:10:32.203Z,7.11
2023-04-07T02:15:38.304Z,7.11
2023-04-07T02:20:41.244Z,7.05
2023-04-07T02:25:47.069Z,7.01
2023-04-07T02:30:51.082Z,7.06
2023-04-07T02:35:53.752Z,7.11
2023-04-07T02:40:58.600Z,7.08
2023-04-07T02:46:03.096Z,6.97
2023-04-07T02:51:06.484Z,6.99
2023-04-07T02:56:09.105Z,6.92
2023-04-07T03:01:13.266Z,6.96
2023-04-07T03:06:16.107Z,6.86
2023-04-07T03:11:30.791Z,6.92
2023-04-07T03:16:37.140Z,6.86
2023-04-07T03:21:44.083Z,6.91
2023-04-07T03:26:47.094Z,6.94
2023-04-07T03:32:10.401Z,6.96
2023-04-07T03:37:13.868Z,6.79
2023-04-07T03:42:17.913Z,6.84
2023-04-07T03:47:22.675Z,6.88
2023-04-07T03:52:31.085Z,6.78
2023-04-07T03:57:41.297Z,6.89
2023-04-07T04:02:45.765Z,6.83
2023-04-07T04:07:53.986Z,6.81
2023-04-07T04:13:00.705Z,6.90
2023-04-07T04:18:04.880Z,6.81
2023-04-07T04:23:09.280Z,6.79
2023-04-07T04:28:13.887Z,6.86
2023-04-07T04:33:18.786Z,6.74
2023-04-07T04:38:39.471Z,6.87
2023-04-07T04:44:00.006Z,6.84
2023-04-07T04:49:04.820Z,6.86
2023-04-07T04:54:08.060Z,6.92
2023-04-07T04:59:10.886Z,6.83
2023-04-07T05:04:31.984Z,6.86
2023-04-07T05:09:48.428Z,6.78
2023-04-07T05:14:53.683Z,6.81
2023-04-07T05:19:57.832Z,6.82
2023-04-07T05:25:10.930Z,6.77
2023-04-07T05:30:15.988Z,6.77
2023-04-07T05:35:20.400Z,6.71
2023-04-07T05:40:28.701Z,6.81
2023-04-07T05:45:33.499Z,6.94
2023-04-07T05:50:38.013Z,7.01
2023-04-07T05:55:44.406Z,6.99
2023-04-07T06:00:54.807Z,7.03
2023-04-07T06:05:59.371Z,7.00
2023-04-07T06:11:02.783Z,7.05
2023-04-07T06:16:06.413Z,7.14
2023-04-07T06:21:10.742Z,7.05
2023-04-07T06:26:13.927Z,7.23
2023-04-07T06:31:16.732Z,7.23
2023-04-07T06:36:21.804Z,7.28
2023-04-07T06:41:24.577Z,7.27
2023-04-07T06:46:27.463Z,7.32
2023-04-07T06:51:33.085Z,7.37
2023-04-07T06:56:36.128Z,7.35
2023-04-07T07:01:38.895Z,7.45
2023-04-07T07:06:42.927Z,7.38
2023-04-07T07:11:45.986Z,7.37
2023-04-07T07:16:48.923Z,7.49
2023-04-07T07:21:53.020Z,7.49
2023-04-07T07:26:56.720Z,7.54
2023-04-07T07:31:59.422Z,7.58
2023-04-07T07:37:03.428Z,7.58
2023-04-07T07:42:06.202Z,7.57
2023-04-07T07:47:08.881Z,8.19
2023-04-07T07:52:12.932Z,8.15
2023-04-07T07:57:15.693Z,8.33
2023-04-07T08:02:18.456Z,8.78
2023-04-07T08:07:22.515Z,8.92
2023-04-07T08:12:25.247Z,8.16
2023-04-07T08:17:28.127Z,7.99
2023-04-07T08:22:32.222Z,8.03
2023-04-07T08:27:35.068Z,7.82
2023-04-07T08:32:38.536Z,7.82
2023-04-07T08:37:44.322Z,7.88
2023-04-07T08:42:48.940Z,8.01
2023-04-07T08:47:56.679Z,8.01
2023-04-07T08:53:01.974Z,8.03
2023-04-07T08:58:13.135Z,8.04
2023-04-07T09:03:16.773Z,8.25
2023-04-07T09:08:20.952Z,8.54
2023-04-07T09:13:23.716Z,8.53
2023-04-07T09:18:26.500Z,8.53
2023-04-07T09:23:35.351Z,8.67
2023-04-07T09:28:43.007Z,8.68
2023-04-07T09:33:46.380Z,8.75
2023-04-07T09:38:50.701Z,8.83
2023-04-07T09:43:59.011Z,8.89
2023-04-07T09:49:05.083Z,8.87
2023-04-07T09:54:10.978Z,8.99
2023-04-07T09:59:15.330Z,9.17
2023-04-07T10:04:18.610Z,9.29
2023-04-07T10:09:24.250Z,9.07
2023-04-07T10:14:28.358Z,8.91
2023-04-07T10:19:32.178Z,9.07
2023-04-07T10:24:48.150Z,9.11
2023-04-07T10:29:52.586Z,9.17
2023-04-07T10:35:01.981Z,9.31
2023-04-07T10:40:31.480Z,9.22
2023-04-07T10:45:54.311Z,9.32
2023-04-07T10:51:17.769Z,9.32
2023-04-07T10:56:21.862Z,9.26
2023-04-07T11:01:24.641Z,9.12
2023-04-07T11:06:27.690Z,9.24
2023-04-07T11:11:39.784Z,9.27
2023-04-07T11:16:43.844Z,9.11
2023-04-07T11:21:46.766Z,9.14
2023-04-07T11:26:50.934Z,9.20
2023-04-07T11:31:53.829Z,9.50
2023-04-07T11:36:59.662Z,9.35
2023-04-07T11:42:03.896Z,9.41
2023-04-07T11:47:06.733Z,9.35
2023-04-07T11:52:09.567Z,9.40
2023-04-07T11:57:14.171Z,9.26
2023-04-07T12:02:32.169Z,9.37
2023-04-07T12:07:35.176Z,9.59
2023-04-07T12:12:39.525Z,9.71
2023-04-07T12:17:46.569Z,9.98
2023-04-07T12:22:49.313Z,9.97
2023-04-07T12:27:53.345Z,10.03
2023-04-07T12:32:56.136Z,10.11
2023-04-07T12:37:58.901Z,10.19
2023-04-07T12:43:03.693Z,10.27
2023-04-07T12:48:06.732Z,10.13
2023-04-07T12:53:09.488Z,10.43
2023-04-07T12:58:13.593Z,10.71
2023-04-07T13:03:16.873Z,10.80
2023-04-07T13:08:19.711Z,10.82
2023-04-07T13:13:23.953Z,10.80
2023-04-07T13:18:26.746Z,10.45
2023-04-07T13:23:39.349Z,10.66
2023-04-07T13:28:47.827Z,10.64
2023-04-07T13:33:50.862Z,10.67
2023-04-07T13:38:53.832Z,10.52
2023-04-07T13:43:58.334Z,10.45
2023-04-07T13:49:01.061Z,10.43
2023-04-07T13:54:03.842Z,10.59
2023-04-07T13:59:08.438Z,10.70
2023-04-07T14:04:11.311Z,10.85
2023-04-07T14:09:14.081Z,11.00
2023-04-07T14:14:18.140Z,10.65
2023-04-07T14:19:22.191Z,10.53
2023-04-07T14:24:24.878Z,10.61
2023-04-07T14:29:28.951Z,10.61
2023-04-07T14:34:31.801Z,10.92
2023-04-07T14:39:34.579Z,11.02
2023-04-07T14:44:38.680Z,10.88
2023-04-07T14:49:41.450Z,10.91
2023-04-07T14:54:44.303Z,11.01
2023-04-07T14:59:48.607Z,10.91
2023-04-07T15:04:51.498Z,11.00
2023-04-07T15:09:54.306Z,11.16
2023-04-07T15:14:58.681Z,11.04
2023-04-07T15:20:01.527Z,11.04
2023-04-07T15:25:04.453Z,11.32
2023-04-07T15:30:09.749Z,11.34
2023-04-07T15:35:12.770Z,10.98
2023-04-07T15:40:15.669Z,10.91
2023-04-07T15:45:19.706Z,10.87
2023-04-07T15:50:23.210Z,11.02
2023-04-07T15:55:25.906Z,11.00
2023-04-07T16:00:30.862Z,10.88
2023-04-07T16:05:33.584Z,11.04
2023-04-07T16:10:36.413Z,11.00
2023-04-07T16:15:41.677Z,10.84
2023-04-07T16:20:44.619Z,10.85
2023-04-07T16:25:47.313Z,10.75
2023-04-07T16:30:51.391Z,10.45
2023-04-07T16:35:54.140Z,10.46
2023-04-07T16:41:03.936Z,10.58
2023-04-07T16:46:08.783Z,10.66
2023-04-07T16:51:11.519Z,10.27
2023-04-07T16:56:17.087Z,10.32
2023-04-07T17:01:21.260Z,10.32
2023-04-07T17:06:24.028Z,10.28
2023-04-07T17:11:26.835Z,10.39
2023-04-07T17:16:30.975Z,10.17
2023-04-07T17:21:33.657Z,10.18
2023-04-07T17:26:36.417Z,10.09
2023-04-07T17:31:40.705Z,10.03
2023-04-07T17:36:43.689Z,9.91
2023-04-07T17:41:47.553Z,9.97
2023-04-07T17:46:51.684Z,9.86
2023-04-07T17:51:55.501Z,9.79
2023-04-07T17:56:58.472Z,9.29
2023-04-07T18:02:08.720Z,9.50
2023-04-07T18:07:12.869Z,9.53
2023-04-07T18:12:15.714Z,9.63
2023-04-07T18:17:19.737Z,9.35
2023-04-07T18:22:22.428Z,9.36
2023-04-07T18:27:27.866Z,9.29
2023-04-07T18:32:31.968Z,9.36
2023-04-07T18:37:35.139Z,9.33
2023-04-07T18:42:37.883Z,9.24
2023-04-07T18:47:42.060Z,9.12
2023-04-07T18:52:44.772Z,9.09
2023-04-07T18:57:47.440Z,8.92
2023-04-07T19:02:51.828Z,8.86
2023-04-07T19:07:54.626Z,8.87
2023-04-07T19:12:57.296Z,8.82
2023-04-07T19:18:02.527Z,8.68
2023-04-07T19:23:05.315Z,8.67
2023-04-07T19:28:08.026Z,8.59
2023-04-07T19:33:12.651Z,8.44
2023-04-07T19:38:15.680Z,8.37
2023-04-07T19:43:18.412Z,8.17
2023-04-07T19:48:22.482Z,8.09
2023-04-07T19:53:26.202Z,8.15
2023-04-07T19:58:29.008Z,8.09
2023-04-07T20:03:33.217Z,7.95
2023-04-07T20:08:35.978Z,7.80
2023-04-07T20:13:38.707Z,7.45
2023-04-07T20:18:42.801Z,7.60
2023-04-07T20:23:46.407Z,7.60
2023-04-07T20:28:49.492Z,7.51
2023-04-07T20:33:53.750Z,7.50
2023-04-07T20:38:56.511Z,7.43
2023-04-07T20:43:59.254Z,7.24
2023-04-07T20:49:03.859Z,7.05
2023-04-07T20:54:06.615Z,7.10
2023-04-07T20:59:09.398Z,7.00
2023-04-07T21:04:13.561Z,6.88
2023-04-07T21:09:16.278Z,6.87
2023-04-07T21:14:18.956Z,6.75
2023-04-07T21:19:23.215Z,6.62
2023-04-07T21:24:25.975Z,6.50
2023-04-07T21:29:30.824Z,6.50
2023-04-07T21:34:34.858Z,6.26
2023-04-07T21:39:37.633Z,6.31
2023-04-07T21:44:40.285Z,6.26
2023-04-07T21:49:44.629Z,6.02
2023-04-07T21:54:47.520Z,6.08
2023-04-07T21:59:50.309Z,5.66
2023-04-07T22:04:54.357Z,5.88
2023-04-07T22:09:58.317Z,5.95
2023-04-07T22:15:01.040Z,5.70
2023-04-07T22:20:05.690Z,5.74
2023-04-07T22:25:09.139Z,5.57
2023-04-07T22:30:12.255Z,5.70
2023-04-07T22:35:16.397Z,5.09
2023-04-07T22:40:19.078Z,5.35
2023-04-07T22:45:21.851Z,5.38
2023-04-07T22:50:25.951Z,5.35
2023-04-07T22:55:29.554Z,5.35
2023-04-07T23:00:32.360Z,5.16
2023-04-07T23:05:36.975Z,5.20
2023-04-07T23:10:39.690Z,5.22
2023-04-07T23:15:42.584Z,5.23
2023-04-07T23:20:52.452Z,5.32
2023-04-07T23:25:55.391Z,5.18
2023-04-07T23:30:58.086Z,5.13
2023-04-07T23:36:02.736Z,5.11
2023-04-07T23:41:05.514Z,5.36
2023-04-07T23:46:08.261Z,5.32
2023-04-07T23:51:12.745Z,5.11
2023-04-07T23:56:15.544Z,5.09
